createdAt,value
2022-11-15T00:01:10.801Z,8.58
2022-11-15T00:06:07.226Z,8.59
2022-11-15T00:11:04.407Z,8.63
2022-11-15T00:16:02.457Z,8.64
2022-11-15T00:21:06.050Z,8.63
2022-11-15T00:26:02.686Z,8.69
2022-11-15T00:31:07.981Z,8.67
2022-11-15T00:36:10.131Z,8.84
2022-11-15T00:41:09.938Z,8.81
2022-11-15T00:46:06.761Z,8.80
2022-11-15T00:51:03.296Z,8.91
2022-11-15T00:55:59.657Z,8.91
2022-11-15T01:00:56.199Z,8.93
2022-11-15T01:05:52.781Z,9.00
2022-11-15T01:10:49.154Z,9.03
2022-11-15T01:15:45.741Z,9.06
2022-11-15T01:20:43.163Z,9.17
2022-11-15T01:25:39.593Z,9.12
2022-11-15T01:30:37.104Z,9.19
2022-11-15T01:35:33.471Z,9.19
2022-11-15T01:40:30.007Z,9.25
2022-11-15T01:45:27.141Z,9.26
2022-11-15T01:50:30.541Z,9.29
2022-11-15T01:55:29.198Z,9.28
2022-11-15T02:00:25.578Z,9.19
2022-11-15T02:05:22.087Z,9.19
2022-11-15T02:10:21.620Z,9.17
2022-11-15T02:15:18.830Z,9.23
2022-11-15T02:20:32.918Z,9.31
2022-11-15T02:25:52.951Z,9.58
2022-11-15T02:31:02.751Z,9.52
2022-11-15T02:36:07.930Z,9.76
2022-11-15T02:41:10.071Z,9.92
2022-11-15T02:46:18.630Z,9.90
2022-11-15T02:51:16.795Z,10.10
2022-11-15T02:56:13.610Z,10.22
2022-11-15T03:01:39.424Z,10.25
2022-11-15T03:06:59.081Z,10.29
2022-11-15T03:12:04.210Z,10.24
2022-11-15T03:17:16.731Z,10.25
2022-11-15T03:22:19.657Z,10.41
2022-11-15T03:27:21.736Z,10.31
2022-11-15T03:32:26.179Z,10.36
2022-11-15T03:37:30.280Z,10.29
2022-11-15T03:42:32.417Z,10.41
2022-11-15T03:47:35.411Z,10.47
2022-11-15T03:52:34.981Z,10.41
2022-11-15T03:57:31.363Z,10.43
2022-11-15T04:02:27.707Z,10.35
2022-11-15T04:07:24.134Z,10.31
2022-11-15T04:12:31.561Z,10.32
2022-11-15T04:17:27.961Z,10.33
2022-11-15T04:22:42.978Z,10.27
2022-11-15T04:27:39.345Z,10.33
2022-11-15T04:32:35.648Z,10.34
2022-11-15T04:37:32.046Z,10.27
2022-11-15T04:42:28.398Z,10.23
2022-11-15T04:47:24.751Z,10.17
2022-11-15T04:52:21.066Z,10.16
2022-11-15T04:57:17.407Z,10.14
2022-11-15T05:02:13.748Z,10.12
2022-11-15T05:07:10.146Z,10.08
2022-11-15T05:12:06.556Z,10.03
2022-11-15T05:17:02.907Z,10.06
2022-11-15T05:21:59.880Z,10.11
2022-11-15T05:26:56.212Z,10.09
2022-11-15T05:31:52.722Z,10.03
2022-11-15T05:36:49.748Z,10.02
2022-11-15T05:41:55.638Z,10.02
2022-11-15T05:46:54.469Z,10.05
2022-11-15T05:51:53.019Z,10.00
2022-11-15T05:56:50.338Z,10.01
2022-11-15T06:01:46.867Z,10.03
2022-11-15T06:06:43.304Z,10.05
2022-11-15T06:11:39.680Z,10.07
2022-11-15T06:16:36.072Z,10.11
2022-11-15T06:21:32.442Z,10.16
2022-11-15T06:26:29.392Z,10.28
2022-11-15T06:31:25.815Z,10.38
2022-11-15T06:36:22.324Z,10.41
2022-11-15T06:41:18.922Z,10.45
2022-11-15T06:46:15.589Z,10.53
2022-11-15T06:51:11.987Z,10.63
2022-11-15T06:56:08.758Z,10.67
2022-11-15T07:01:08.380Z,10.76
2022-11-15T07:06:07.384Z,10.84
2022-11-15T07:11:07.485Z,10.91
2022-11-15T07:16:08.801Z,10.95
2022-11-15T07:21:06.944Z,11.10
2022-11-15T07:26:03.358Z,11.17
2022-11-15T07:31:03.980Z,11.15
2022-11-15T07:36:06.126Z,11.15
2022-11-15T07:41:06.009Z,11.21
2022-11-15T07:46:12.284Z,11.24
2022-11-15T07:51:14.184Z,11.24
2022-11-15T07:56:11.813Z,11.27
2022-11-15T08:01:10.199Z,11.46
2022-11-15T08:06:06.776Z,11.55
2022-11-15T08:11:03.231Z,11.71
2022-11-15T08:16:01.404Z,11.97
2022-11-15T08:21:02.458Z,12.04
2022-11-15T08:26:03.896Z,12.17
2022-11-15T08:31:00.584Z,12.41
2022-11-15T08:35:58.424Z,12.55
2022-11-15T08:41:02.214Z,12.48
2022-11-15T08:45:59.671Z,12.62
2022-11-15T08:50:57.314Z,12.71
2022-11-15T08:55:53.754Z,12.87
2022-11-15T09:00:50.164Z,13.18
2022-11-15T09:05:46.557Z,13.26
2022-11-15T09:10:42.947Z,13.43
2022-11-15T09:15:39.346Z,13.49
2022-11-15T09:20:35.766Z,13.54
2022-11-15T09:25:32.428Z,13.54
2022-11-15T09:30:28.807Z,13.59
2022-11-15T09:35:25.406Z,13.63
2022-11-15T09:40:23.580Z,13.69
2022-11-15T09:45:23.072Z,13.76
2022-11-15T09:50:32.897Z,13.73
2022-11-15T09:55:51.135Z,13.96
2022-11-15T10:00:53.682Z,14.05
2022-11-15T10:05:52.780Z,14.08
2022-11-15T10:11:09.646Z,14.11
2022-11-15T10:16:33.859Z,14.02
2022-11-15T10:21:41.798Z,13.91
2022-11-15T10:26:38.530Z,14.08
2022-11-15T10:31:34.986Z,14.13
2022-11-15T10:36:31.562Z,14.11
2022-11-15T10:41:27.881Z,14.18
2022-11-15T10:46:45.770Z,14.18
2022-11-15T10:51:48.747Z,14.19
2022-11-15T10:56:51.666Z,13.95
2022-11-15T11:01:49.342Z,14.04
2022-11-15T11:07:00.784Z,14.21
2022-11-15T11:11:57.467Z,13.95
2022-11-15T11:16:58.480Z,14.36
2022-11-15T11:22:00.926Z,14.39
2022-11-15T11:27:18.621Z,14.20
2022-11-15T11:32:33.439Z,14.29
2022-11-15T11:37:47.864Z,14.23
2022-11-15T11:43:19.364Z,14.36
2022-11-15T11:48:27.024Z,14.68
2022-11-15T11:53:32.432Z,14.61
2022-11-15T11:58:35.939Z,14.65
2022-11-15T12:03:45.658Z,14.45
2022-11-15T12:09:11.232Z,14.46
2022-11-15T12:14:23.229Z,14.51
2022-11-15T12:19:19.593Z,14.77
2022-11-15T12:24:25.604Z,14.80
2022-11-15T12:29:42.635Z,14.47
2022-11-15T12:34:43.151Z,14.53
2022-11-15T12:40:19.142Z,14.64
2022-11-15T12:45:34.275Z,14.72
2022-11-15T12:50:49.597Z,14.63
2022-11-15T12:56:18.108Z,14.46
2022-11-15T13:01:38.885Z,14.46
2022-11-15T13:06:56.717Z,14.30
2022-11-15T13:11:53.958Z,14.34
2022-11-15T13:16:59.806Z,14.43
2022-11-15T13:22:14.831Z,14.40
2022-11-15T13:27:18.880Z,14.36
2022-11-15T13:32:17.523Z,14.59
2022-11-15T13:37:30.841Z,14.58
2022-11-15T13:42:29.815Z,14.43
2022-11-15T13:47:28.356Z,14.36
2022-11-15T13:52:31.869Z,14.31
2022-11-15T13:57:36.487Z,14.26
2022-11-15T14:02:37.236Z,14.25
2022-11-15T14:07:43.229Z,14.23
2022-11-15T14:12:51.700Z,14.35
2022-11-15T14:17:50.196Z,14.27
2022-11-15T14:22:57.861Z,14.07
2022-11-15T14:28:23.937Z,14.01
2022-11-15T14:33:30.881Z,13.99
2022-11-15T14:38:27.498Z,13.86
2022-11-15T14:43:24.049Z,13.87
2022-11-15T14:48:20.586Z,13.68
2022-11-15T14:53:18.789Z,13.34
2022-11-15T14:58:15.175Z,13.14
2022-11-15T15:03:11.847Z,12.90
2022-11-15T15:08:09.558Z,12.73
2022-11-15T15:13:06.929Z,12.69
2022-11-15T15:18:05.745Z,12.73
2022-11-15T15:23:02.127Z,12.84
2022-11-15T15:27:58.682Z,12.69
2022-11-15T15:32:55.615Z,12.60
2022-11-15T15:37:52.506Z,12.60
2022-11-15T15:42:49.686Z,12.45
2022-11-15T15:47:46.976Z,12.34
2022-11-15T15:52:43.336Z,12.33
2022-11-15T15:57:39.689Z,12.20
2022-11-15T16:02:40.271Z,12.06
2022-11-15T16:07:37.727Z,12.04
2022-11-15T16:12:35.765Z,11.99
2022-11-15T16:17:36.112Z,11.93
2022-11-15T16:22:32.497Z,11.89
2022-11-15T16:27:28.948Z,11.74
2022-11-15T16:32:25.386Z,11.59
2022-11-15T16:37:25.301Z,11.46
2022-11-15T16:42:21.674Z,11.38
2022-11-15T16:47:22.841Z,11.34
2022-11-15T16:52:21.546Z,11.32
2022-11-15T16:57:18.060Z,11.23
2022-11-15T17:02:15.091Z,11.14
2022-11-15T17:07:11.549Z,11.09
2022-11-15T17:12:08.970Z,11.16
2022-11-15T17:17:05.322Z,11.25
2022-11-15T17:22:04.962Z,11.36
2022-11-15T17:27:01.508Z,11.34
2022-11-15T17:31:57.879Z,11.41
2022-11-15T17:36:54.221Z,11.43
2022-11-15T17:41:51.721Z,11.53
2022-11-15T17:46:48.058Z,11.56
2022-11-15T17:51:48.828Z,11.52
2022-11-15T17:56:46.419Z,11.55
2022-11-15T18:01:42.795Z,11.57
2022-11-15T18:06:39.198Z,11.64
2022-11-15T18:11:39.248Z,11.76
2022-11-15T18:16:37.494Z,11.81
2022-11-15T18:21:33.947Z,11.74
2022-11-15T18:26:30.616Z,11.81
2022-11-15T18:31:29.001Z,11.76
2022-11-15T18:36:27.214Z,11.74
2022-11-15T18:41:28.077Z,11.78
2022-11-15T18:46:26.508Z,11.87
2022-11-15T18:51:25.239Z,11.84
2022-11-15T18:56:23.232Z,11.90
2022-11-15T19:01:21.777Z,11.98
2022-11-15T19:06:26.620Z,11.97
2022-11-15T19:11:31.626Z,12.13
2022-11-15T19:16:28.122Z,12.16
2022-11-15T19:21:25.902Z,12.11
2022-11-15T19:26:26.414Z,12.28
2022-11-15T19:31:24.344Z,12.16
2022-11-15T19:36:29.446Z,12.07
2022-11-15T19:41:26.697Z,12.17
2022-11-15T19:46:24.063Z,12.23
2022-11-15T19:51:22.588Z,12.04
2022-11-15T19:56:19.850Z,11.94
2022-11-15T20:01:19.181Z,11.99
2022-11-15T20:06:19.932Z,11.92
2022-11-15T20:11:17.302Z,11.78
2022-11-15T20:16:21.308Z,11.77
2022-11-15T20:21:17.679Z,11.67
2022-11-15T20:26:15.289Z,11.59
2022-11-15T20:31:12.801Z,11.58
2022-11-15T20:36:15.295Z,11.52
2022-11-15T20:41:12.827Z,11.57
2022-11-15T20:46:11.211Z,11.56
2022-11-15T20:51:09.762Z,11.53
2022-11-15T20:56:10.456Z,11.51
2022-11-15T21:01:08.338Z,11.51
2022-11-15T21:06:05.054Z,11.45
2022-11-15T21:11:20.491Z,11.44
2022-11-15T21:16:17.543Z,11.43
2022-11-15T21:21:15.111Z,11.38
2022-11-15T21:26:11.512Z,11.39
2022-11-15T21:31:08.939Z,11.37
2022-11-15T21:36:05.562Z,11.37
2022-11-15T21:41:04.849Z,11.36
2022-11-15T21:46:04.821Z,11.36
2022-11-15T21:51:06.679Z,11.39
2022-11-15T21:56:03.720Z,11.35
2022-11-15T22:01:18.644Z,11.36
2022-11-15T22:06:18.030Z,11.32
2022-11-15T22:11:15.166Z,11.29
2022-11-15T22:16:11.520Z,11.19
2022-11-15T22:21:13.588Z,11.18
2022-11-15T22:26:23.526Z,11.09
2022-11-15T22:31:20.535Z,11.04
2022-11-15T22:36:16.951Z,10.95
2022-11-15T22:41:13.526Z,10.89
2022-11-15T22:46:10.620Z,10.88
2022-11-15T22:51:08.295Z,10.86
2022-11-15T22:56:06.843Z,10.75
2022-11-15T23:01:04.912Z,10.67
2022-11-15T23:06:06.478Z,10.61
2022-11-15T23:11:23.264Z,10.53
2022-11-15T23:16:25.458Z,10.40
2022-11-15T23:21:55.732Z,10.29
2022-11-15T23:26:58.392Z,10.18
2022-11-15T23:32:14.564Z,10.14
2022-11-15T23:37:13.624Z,10.06
2022-11-15T23:42:19.383Z,10.01
2022-11-15T23:47:19.528Z,9.98
2022-11-15T23:52:17.017Z,9.91
2022-11-15T23:57:13.434Z,9.85
